sensor_id;sensor_type;location;lat;lon;timestamp;P1;durP1;ratioP1;P2;durP2;ratioP2
66669;SDS011;53568;52.164;4.472;2023-05-20T00:00:34;7.78;;;7.78;;
66669;SDS011;53568;52.164;4.472;2023-05-20T00:02:59;8.14;;;8.14;;
66669;SDS011;53568;52.164;4.472;2023-05-20T00:05:25;7.97;;;7.97;;
66669;SDS011;53568;52.164;4.472;2023-05-20T00:07:51;8.16;;;8.16;;
66669;SDS011;53568;52.164;4.472;2023-05-20T00:10:16;8.40;;;8.40;;
66669;SDS011;53568;52.164;4.472;2023-05-20T00:12:42;8.22;;;8.21;;
66669;SDS011;53568;52.164;4.472;2023-05-20T00:15:07;8.33;;;8.33;;
66669;SDS011;53568;52.164;4.472;2023-05-20T00:17:36;8.25;;;8.25;;
66669;SDS011;53568;52.164;4.472;2023-05-20T00:20:01;8.48;;;8.45;;
66669;SDS011;53568;52.164;4.472;2023-05-20T00:22:29;8.45;;;8.45;;
66669;SDS011;53568;52.164;4.472;2023-05-20T00:24:55;9.01;;;9.01;;
66669;SDS011;53568;52.164;4.472;2023-05-20T00:27:20;8.69;;;8.69;;
66669;SDS011;53568;52.164;4.472;2023-05-20T00:29:46;8.84;;;8.82;;
66669;SDS011;53568;52.164;4.472;2023-05-20T00:32:11;8.64;;;8.58;;
66669;SDS011;53568;52.164;4.472;2023-05-20T00:34:38;8.78;;;8.77;;
66669;SDS011;53568;52.164;4.472;2023-05-20T00:37:03;9.02;;;9.00;;
66669;SDS011;53568;52.164;4.472;2023-05-20T00:39:29;9.55;;;9.54;;
66669;SDS011;53568;52.164;4.472;2023-05-20T00:41:54;9.54;;;9.53;;
66669;SDS011;53568;52.164;4.472;2023-05-20T00:44:24;9.28;;;9.26;;
66669;SDS011;53568;52.164;4.472;2023-05-20T00:46:50;9.37;;;9.36;;
66669;SDS011;53568;52.164;4.472;2023-05-20T00:49:17;9.07;;;9.05;;
66669;SDS011;53568;52.164;4.472;2023-05-20T00:51:44;9.68;;;9.67;;
66669;SDS011;53568;52.164;4.472;2023-05-20T00:54:10;9.21;;;9.21;;
66669;SDS011;53568;52.164;4.472;2023-05-20T00:56:36;9.68;;;9.65;;
66669;SDS011;53568;52.164;4.472;2023-05-20T00:59:02;9.84;;;9.75;;
66669;SDS011;53568;52.164;4.472;2023-05-20T01:01:28;9.99;;;9.93;;
66669;SDS011;53568;52.164;4.472;2023-05-20T01:03:54;9.61;;;9.58;;
66669;SDS011;53568;52.164;4.472;2023-05-20T01:06:19;9.55;;;9.52;;
66669;SDS011;53568;52.164;4.472;2023-05-20T01:08:45;9.53;;;9.48;;
66669;SDS011;53568;52.164;4.472;2023-05-20T01:11:15;9.79;;;9.75;;
66669;SDS011;53568;52.164;4.472;2023-05-20T01:13:53;10.17;;;10.13;;
66669;SDS011;53568;52.164;4.472;2023-05-20T01:16:22;9.98;;;9.98;;
66669;SDS011;53568;52.164;4.472;2023-05-20T01:18:49;10.03;;;9.99;;
66669;SDS011;53568;52.164;4.472;2023-05-20T01:21:19;10.70;;;10.61;;
66669;SDS011;53568;52.164;4.472;2023-05-20T01:23:46;10.15;;;10.13;;
66669;SDS011;53568;52.164;4.472;2023-05-20T01:26:12;10.39;;;10.39;;
66669;SDS011;53568;52.164;4.472;2023-05-20T01:28:38;10.09;;;10.06;;
66669;SDS011;53568;52.164;4.472;2023-05-20T01:31:04;10.00;;;9.99;;
66669;SDS011;53568;52.164;4.472;2023-05-20T01:33:35;10.41;;;10.41;;
66669;SDS011;53568;52.164;4.472;2023-05-20T01:36:02;10.31;;;10.27;;
66669;SDS011;53568;52.164;4.472;2023-05-20T01:38:30;10.82;;;10.81;;
66669;SDS011;53568;52.164;4.472;2023-05-20T01:40:56;10.17;;;10.17;;
66669;SDS011;53568;52.164;4.472;2023-05-20T01:43:25;10.44;;;10.44;;
66669;SDS011;53568;52.164;4.472;2023-05-20T01:45:52;9.89;;;9.89;;
66669;SDS011;53568;52.164;4.472;2023-05-20T01:48:17;9.95;;;9.95;;
66669;SDS011;53568;52.164;4.472;2023-05-20T01:50:43;10.25;;;10.25;;
66669;SDS011;53568;52.164;4.472;2023-05-20T01:53:08;10.27;;;10.20;;
66669;SDS011;53568;52.164;4.472;2023-05-20T01:55:34;10.01;;;10.01;;
66669;SDS011;53568;52.164;4.472;2023-05-20T01:58:00;10.62;;;10.62;;
66669;SDS011;53568;52.164;4.472;2023-05-20T02:00:26;10.39;;;10.38;;
66669;SDS011;53568;52.164;4.472;2023-05-20T02:02:52;10.89;;;10.89;;
66669;SDS011;53568;52.164;4.472;2023-05-20T02:05:17;10.95;;;10.94;;
66669;SDS011;53568;52.164;4.472;2023-05-20T02:07:43;11.46;;;11.37;;
66669;SDS011;53568;52.164;4.472;2023-05-20T02:10:08;11.05;;;10.97;;
66669;SDS011;53568;52.164;4.472;2023-05-20T02:12:34;11.22;;;11.19;;
66669;SDS011;53568;52.164;4.472;2023-05-20T02:15:00;11.62;;;11.62;;
66669;SDS011;53568;52.164;4.472;2023-05-20T02:17:26;11.78;;;11.78;;
66669;SDS011;53568;52.164;4.472;2023-05-20T02:19:51;11.74;;;11.69;;
66669;SDS011;53568;52.164;4.472;2023-05-20T02:22:17;11.71;;;11.71;;
66669;SDS011;53568;52.164;4.472;2023-05-20T02:24:42;11.74;;;11.73;;
66669;SDS011;53568;52.164;4.472;2023-05-20T02:27:08;12.02;;;11.94;;
66669;SDS011;53568;52.164;4.472;2023-05-20T02:29:34;12.43;;;12.42;;
66669;SDS011;53568;52.164;4.472;2023-05-20T02:32:00;11.99;;;11.99;;
66669;SDS011;53568;52.164;4.472;2023-05-20T02:34:25;11.81;;;11.81;;
66669;SDS011;53568;52.164;4.472;2023-05-20T02:36:51;12.47;;;12.40;;
66669;SDS011;53568;52.164;4.472;2023-05-20T02:39:17;12.29;;;12.26;;
66669;SDS011;53568;52.164;4.472;2023-05-20T02:41:42;12.49;;;12.39;;
66669;SDS011;53568;52.164;4.472;2023-05-20T02:44:08;11.73;;;11.69;;
66669;SDS011;53568;52.164;4.472;2023-05-20T02:46:33;12.49;;;12.30;;
66669;SDS011;53568;52.164;4.472;2023-05-20T02:49:00;12.03;;;11.91;;
66669;SDS011;53568;52.164;4.472;2023-05-20T02:51:25;11.98;;;11.94;;
66669;SDS011;53568;52.164;4.472;2023-05-20T02:53:51;11.88;;;11.86;;
66669;SDS011;53568;52.164;4.472;2023-05-20T02:56:17;12.50;;;12.41;;
66669;SDS011;53568;52.164;4.472;2023-05-20T02:58:45;12.38;;;12.23;;
66669;SDS011;53568;52.164;4.472;2023-05-20T03:01:11;12.17;;;12.07;;
66669;SDS011;53568;52.164;4.472;2023-05-20T03:03:37;11.79;;;11.72;;
66669;SDS011;53568;52.164;4.472;2023-05-20T03:06:05;11.89;;;11.80;;
66669;SDS011;53568;52.164;4.472;2023-05-20T03:08:32;12.36;;;12.25;;
66669;SDS011;53568;52.164;4.472;2023-05-20T03:11:01;12.12;;;11.98;;
66669;SDS011;53568;52.164;4.472;2023-05-20T03:13:27;12.28;;;12.18;;
66669;SDS011;53568;52.164;4.472;2023-05-20T03:15:52;11.78;;;11.78;;
66669;SDS011;53568;52.164;4.472;2023-05-20T03:18:18;12.12;;;11.95;;
66669;SDS011;53568;52.164;4.472;2023-05-20T03:20:44;11.89;;;11.84;;
66669;SDS011;53568;52.164;4.472;2023-05-20T03:23:10;11.73;;;11.70;;
66669;SDS011;53568;52.164;4.472;2023-05-20T03:25:36;12.01;;;11.91;;
66669;SDS011;53568;52.164;4.472;2023-05-20T03:28:03;11.50;;;11.45;;
66669;SDS011;53568;52.164;4.472;2023-05-20T03:30:30;11.74;;;11.68;;
66669;SDS011;53568;52.164;4.472;2023-05-20T03:32:57;11.84;;;11.82;;
66669;SDS011;53568;52.164;4.472;2023-05-20T03:35:23;11.83;;;11.79;;
66669;SDS011;53568;52.164;4.472;2023-05-20T03:37:49;11.75;;;11.68;;
66669;SDS011;53568;52.164;4.472;2023-05-20T03:40:15;11.57;;;11.42;;
66669;SDS011;53568;52.164;4.472;2023-05-20T03:42:41;11.86;;;11.80;;
66669;SDS011;53568;52.164;4.472;2023-05-20T03:45:07;11.97;;;11.81;;
66669;SDS011;53568;52.164;4.472;2023-05-20T03:47:33;11.65;;;11.64;;
66669;SDS011;53568;52.164;4.472;2023-05-20T03:49:58;11.62;;;11.55;;
66669;SDS011;53568;52.164;4.472;2023-05-20T03:52:24;11.45;;;11.44;;
66669;SDS011;53568;52.164;4.472;2023-05-20T03:54:49;11.56;;;11.51;;
66669;SDS011;53568;52.164;4.472;2023-05-20T03:57:15;11.32;;;11.31;;
66669;SDS011;53568;52.164;4.472;2023-05-20T03:59:40;11.11;;;11.11;;
66669;SDS011;53568;52.164;4.472;2023-05-20T04:02:06;11.67;;;11.58;;
66669;SDS011;53568;52.164;4.472;2023-05-20T04:04:33;11.39;;;11.32;;
66669;SDS011;53568;52.164;4.472;2023-05-20T04:06:58;11.28;;;11.26;;
66669;SDS011;53568;52.164;4.472;2023-05-20T04:09:25;10.98;;;10.97;;
66669;SDS011;53568;52.164;4.472;2023-05-20T04:11:51;11.12;;;11.09;;
66669;SDS011;53568;52.164;4.472;2023-05-20T04:14:16;11.28;;;11.23;;
66669;SDS011;53568;52.164;4.472;2023-05-20T04:16:42;11.52;;;11.49;;
66669;SDS011;53568;52.164;4.472;2023-05-20T04:19:09;11.26;;;11.19;;
66669;SDS011;53568;52.164;4.472;2023-05-20T04:21:35;11.23;;;11.19;;
66669;SDS011;53568;52.164;4.472;2023-05-20T04:24:01;11.16;;;11.07;;
66669;SDS011;53568;52.164;4.472;2023-05-20T04:26:27;11.27;;;11.15;;
66669;SDS011;53568;52.164;4.472;2023-05-20T04:28:53;11.25;;;11.22;;
66669;SDS011;53568;52.164;4.472;2023-05-20T04:31:23;10.83;;;10.73;;
66669;SDS011;53568;52.164;4.472;2023-05-20T04:33:51;11.06;;;10.96;;
66669;SDS011;53568;52.164;4.472;2023-05-20T04:36:19;11.09;;;10.99;;
66669;SDS011;53568;52.164;4.472;2023-05-20T04:38:45;10.43;;;10.42;;
66669;SDS011;53568;52.164;4.472;2023-05-20T04:41:12;10.45;;;10.43;;
66669;SDS011;53568;52.164;4.472;2023-05-20T04:43:40;10.63;;;10.62;;
66669;SDS011;53568;52.164;4.472;2023-05-20T04:46:06;10.55;;;10.53;;
66669;SDS011;53568;52.164;4.472;2023-05-20T04:48:31;10.68;;;10.65;;
66669;SDS011;53568;52.164;4.472;2023-05-20T04:50:57;11.19;;;11.09;;
66669;SDS011;53568;52.164;4.472;2023-05-20T04:53:23;11.22;;;11.17;;
66669;SDS011;53568;52.164;4.472;2023-05-20T04:55:48;11.10;;;11.08;;
66669;SDS011;53568;52.164;4.472;2023-05-20T04:58:18;11.19;;;11.10;;
66669;SDS011;53568;52.164;4.472;2023-05-20T05:00:44;11.10;;;11.02;;
66669;SDS011;53568;52.164;4.472;2023-05-20T05:03:10;11.34;;;11.26;;
66669;SDS011;53568;52.164;4.472;2023-05-20T05:05:39;10.99;;;10.93;;
66669;SDS011;53568;52.164;4.472;2023-05-20T05:08:06;11.23;;;11.20;;
66669;SDS011;53568;52.164;4.472;2023-05-20T05:10:33;11.35;;;11.20;;
66669;SDS011;53568;52.164;4.472;2023-05-20T05:13:00;10.94;;;10.91;;
66669;SDS011;53568;52.164;4.472;2023-05-20T05:15:26;11.11;;;11.09;;
66669;SDS011;53568;52.164;4.472;2023-05-20T05:17:52;10.81;;;10.71;;
66669;SDS011;53568;52.164;4.472;2023-05-20T05:20:17;10.74;;;10.67;;
66669;SDS011;53568;52.164;4.472;2023-05-20T05:22:43;10.63;;;10.59;;
66669;SDS011;53568;52.164;4.472;2023-05-20T05:25:10;10.61;;;10.59;;
66669;SDS011;53568;52.164;4.472;2023-05-20T05:27:36;10.62;;;10.53;;
66669;SDS011;53568;52.164;4.472;2023-05-20T05:30:02;10.52;;;10.50;;
66669;SDS011;53568;52.164;4.472;2023-05-20T05:32:30;10.08;;;9.96;;
66669;SDS011;53568;52.164;4.472;2023-05-20T05:34:56;10.68;;;10.60;;
66669;SDS011;53568;52.164;4.472;2023-05-20T05:37:22;10.12;;;10.12;;
66669;SDS011;53568;52.164;4.472;2023-05-20T05:39:47;10.42;;;10.42;;
66669;SDS011;53568;52.164;4.472;2023-05-20T05:42:13;10.45;;;10.44;;
66669;SDS011;53568;52.164;4.472;2023-05-20T05:44:38;10.41;;;10.39;;
66669;SDS011;53568;52.164;4.472;2023-05-20T05:47:04;10.24;;;10.20;;
66669;SDS011;53568;52.164;4.472;2023-05-20T05:49:30;10.46;;;10.41;;
66669;SDS011;53568;52.164;4.472;2023-05-20T05:51:56;10.35;;;10.28;;
66669;SDS011;53568;52.164;4.472;2023-05-20T05:54:22;10.72;;;10.66;;
66669;SDS011;53568;52.164;4.472;2023-05-20T05:56:50;10.62;;;10.57;;
66669;SDS011;53568;52.164;4.472;2023-05-20T05:59:16;10.84;;;10.71;;
66669;SDS011;53568;52.164;4.472;2023-05-20T06:01:41;11.07;;;11.01;;
66669;SDS011;53568;52.164;4.472;2023-05-20T06:04:07;10.72;;;10.57;;
66669;SDS011;53568;52.164;4.472;2023-05-20T06:06:32;10.62;;;10.54;;
66669;SDS011;53568;52.164;4.472;2023-05-20T06:08:58;10.86;;;10.86;;
66669;SDS011;53568;52.164;4.472;2023-05-20T06:11:23;10.89;;;10.87;;
66669;SDS011;53568;52.164;4.472;2023-05-20T06:13:50;11.17;;;11.17;;
66669;SDS011;53568;52.164;4.472;2023-05-20T06:16:16;11.17;;;11.14;;
66669;SDS011;53568;52.164;4.472;2023-05-20T06:18:42;11.26;;;11.24;;
66669;SDS011;53568;52.164;4.472;2023-05-20T06:21:09;10.92;;;10.91;;
66669;SDS011;53568;52.164;4.472;2023-05-20T06:23:35;11.29;;;11.24;;
66669;SDS011;53568;52.164;4.472;2023-05-20T06:26:01;11.21;;;11.20;;
66669;SDS011;53568;52.164;4.472;2023-05-20T06:28:26;10.92;;;10.92;;
66669;SDS011;53568;52.164;4.472;2023-05-20T06:30:53;10.99;;;10.98;;
66669;SDS011;53568;52.164;4.472;2023-05-20T06:33:20;11.60;;;11.59;;
66669;SDS011;53568;52.164;4.472;2023-05-20T06:35:50;11.31;;;11.31;;
66669;SDS011;53568;52.164;4.472;2023-05-20T06:38:16;10.95;;;10.91;;
66669;SDS011;53568;52.164;4.472;2023-05-20T06:40:41;10.67;;;10.65;;
66669;SDS011;53568;52.164;4.472;2023-05-20T06:43:07;10.85;;;10.82;;
66669;SDS011;53568;52.164;4.472;2023-05-20T06:45:32;10.81;;;10.71;;
66669;SDS011;53568;52.164;4.472;2023-05-20T06:47:58;10.65;;;10.61;;
66669;SDS011;53568;52.164;4.472;2023-05-20T06:50:24;10.76;;;10.76;;
66669;SDS011;53568;52.164;4.472;2023-05-20T06:52:49;10.69;;;10.57;;
66669;SDS011;53568;52.164;4.472;2023-05-20T06:55:15;10.66;;;10.63;;
66669;SDS011;53568;52.164;4.472;2023-05-20T06:57:40;10.02;;;10.00;;
66669;SDS011;53568;52.164;4.472;2023-05-20T07:00:06;10.44;;;10.42;;
66669;SDS011;53568;52.164;4.472;2023-05-20T07:02:33;10.03;;;10.03;;
66669;SDS011;53568;52.164;4.472;2023-05-20T07:04:58;10.09;;;10.03;;
66669;SDS011;53568;52.164;4.472;2023-05-20T07:07:24;9.87;;;9.83;;
66669;SDS011;53568;52.164;4.472;2023-05-20T07:09:49;9.79;;;9.79;;
66669;SDS011;53568;52.164;4.472;2023-05-20T07:12:16;9.61;;;9.61;;
66669;SDS011;53568;52.164;4.472;2023-05-20T07:14:42;9.70;;;9.70;;
66669;SDS011;53568;52.164;4.472;2023-05-20T07:17:08;9.41;;;9.40;;
66669;SDS011;53568;52.164;4.472;2023-05-20T07:19:33;8.92;;;8.92;;
66669;SDS011;53568;52.164;4.472;2023-05-20T07:21:59;8.82;;;8.81;;
66669;SDS011;53568;52.164;4.472;2023-05-20T07:24:25;8.37;;;8.37;;
66669;SDS011;53568;52.164;4.472;2023-05-20T07:26:50;8.22;;;8.22;;
66669;SDS011;53568;52.164;4.472;2023-05-20T07:29:16;8.66;;;8.66;;
66669;SDS011;53568;52.164;4.472;2023-05-20T07:31:41;8.41;;;8.41;;
66669;SDS011;53568;52.164;4.472;2023-05-20T07:34:07;8.72;;;8.72;;
66669;SDS011;53568;52.164;4.472;2023-05-20T07:36:32;8.48;;;8.48;;
66669;SDS011;53568;52.164;4.472;2023-05-20T07:38:58;8.43;;;8.43;;
66669;SDS011;53568;52.164;4.472;2023-05-20T07:41:23;7.86;;;7.86;;
66669;SDS011;53568;52.164;4.472;2023-05-20T07:43:49;7.64;;;7.64;;
66669;SDS011;53568;52.164;4.472;2023-05-20T07:46:14;7.34;;;7.34;;
66669;SDS011;53568;52.164;4.472;2023-05-20T07:48:40;6.58;;;6.58;;
66669;SDS011;53568;52.164;4.472;2023-05-20T07:51:06;6.47;;;6.47;;
66669;SDS011;53568;52.164;4.472;2023-05-20T07:53:31;7.00;;;7.00;;
66669;SDS011;53568;52.164;4.472;2023-05-20T07:55:57;6.63;;;6.63;;
66669;SDS011;53568;52.164;4.472;2023-05-20T07:58:23;6.63;;;6.62;;
66669;SDS011;53568;52.164;4.472;2023-05-20T08:00:49;6.80;;;6.80;;
66669;SDS011;53568;52.164;4.472;2023-05-20T08:03:14;6.52;;;6.51;;
66669;SDS011;53568;52.164;4.472;2023-05-20T08:05:40;6.90;;;6.89;;
66669;SDS011;53568;52.164;4.472;2023-05-20T08:08:06;7.00;;;7.00;;
66669;SDS011;53568;52.164;4.472;2023-05-20T08:10:31;7.30;;;7.30;;
66669;SDS011;53568;52.164;4.472;2023-05-20T08:12:57;7.01;;;7.01;;
66669;SDS011;53568;52.164;4.472;2023-05-20T08:15:22;6.63;;;6.63;;
66669;SDS011;53568;52.164;4.472;2023-05-20T08:17:48;7.32;;;7.32;;
66669;SDS011;53568;52.164;4.472;2023-05-20T08:20:14;6.99;;;6.99;;
66669;SDS011;53568;52.164;4.472;2023-05-20T08:22:39;6.76;;;6.76;;
66669;SDS011;53568;52.164;4.472;2023-05-20T08:25:08;6.76;;;6.76;;
66669;SDS011;53568;52.164;4.472;2023-05-20T08:27:34;6.98;;;6.98;;
66669;SDS011;53568;52.164;4.472;2023-05-20T08:30:00;6.92;;;6.92;;
66669;SDS011;53568;52.164;4.472;2023-05-20T08:32:26;6.66;;;6.66;;
66669;SDS011;53568;52.164;4.472;2023-05-20T08:34:52;6.78;;;6.78;;
66669;SDS011;53568;52.164;4.472;2023-05-20T08:37:17;6.77;;;6.77;;
66669;SDS011;53568;52.164;4.472;2023-05-20T08:39:43;6.55;;;6.55;;
66669;SDS011;53568;52.164;4.472;2023-05-20T08:42:10;6.83;;;6.83;;
66669;SDS011;53568;52.164;4.472;2023-05-20T08:44:37;6.64;;;6.64;;
66669;SDS011;53568;52.164;4.472;2023-05-20T08:47:06;6.28;;;6.28;;
66669;SDS011;53568;52.164;4.472;2023-05-20T08:49:33;5.81;;;5.81;;
66669;SDS011;53568;52.164;4.472;2023-05-20T08:51:59;5.26;;;5.26;;
66669;SDS011;53568;52.164;4.472;2023-05-20T08:54:26;5.07;;;5.07;;
66669;SDS011;53568;52.164;4.472;2023-05-20T08:57:12;5.17;;;5.17;;
66669;SDS011;53568;52.164;4.472;2023-05-20T08:59:41;4.80;;;4.80;;
66669;SDS011;53568;52.164;4.472;2023-05-20T09:02:08;5.03;;;5.03;;
66669;SDS011;53568;52.164;4.472;2023-05-20T09:04:35;4.90;;;4.90;;
66669;SDS011;53568;52.164;4.472;2023-05-20T09:07:01;5.14;;;5.14;;
66669;SDS011;53568;52.164;4.472;2023-05-20T09:09:28;5.19;;;5.19;;
66669;SDS011;53568;52.164;4.472;2023-05-20T09:11:54;5.07;;;5.07;;
66669;SDS011;53568;52.164;4.472;2023-05-20T09:14:20;4.83;;;4.83;;
66669;SDS011;53568;52.164;4.472;2023-05-20T09:16:46;4.71;;;4.71;;
66669;SDS011;53568;52.164;4.472;2023-05-20T09:19:13;4.79;;;4.79;;
66669;SDS011;53568;52.164;4.472;2023-05-20T09:21:39;4.90;;;4.90;;
66669;SDS011;53568;52.164;4.472;2023-05-20T09:24:06;4.69;;;4.69;;
66669;SDS011;53568;52.164;4.472;2023-05-20T09:26:31;4.49;;;4.49;;
66669;SDS011;53568;52.164;4.472;2023-05-20T09:28:58;4.48;;;4.48;;
66669;SDS011;53568;52.164;4.472;2023-05-20T09:31:30;4.32;;;4.32;;
66669;SDS011;53568;52.164;4.472;2023-05-20T09:33:58;4.41;;;4.41;;
66669;SDS011;53568;52.164;4.472;2023-05-20T09:36:27;4.13;;;4.13;;
66669;SDS011;53568;52.164;4.472;2023-05-20T09:38:55;4.24;;;4.24;;
66669;SDS011;53568;52.164;4.472;2023-05-20T09:41:32;4.02;;;4.02;;
66669;SDS011;53568;52.164;4.472;2023-05-20T09:44:03;3.95;;;3.95;;
66669;SDS011;53568;52.164;4.472;2023-05-20T09:46:31;4.03;;;4.03;;
66669;SDS011;53568;52.164;4.472;2023-05-20T09:48:58;4.32;;;4.32;;
66669;SDS011;53568;52.164;4.472;2023-05-20T09:51:23;4.30;;;4.30;;
66669;SDS011;53568;52.164;4.472;2023-05-20T09:53:51;4.12;;;4.12;;
66669;SDS011;53568;52.164;4.472;2023-05-20T09:56:18;4.12;;;4.12;;
66669;SDS011;53568;52.164;4.472;2023-05-20T09:58:46;4.02;;;4.02;;
66669;SDS011;53568;52.164;4.472;2023-05-20T10:01:13;3.69;;;3.69;;
66669;SDS011;53568;52.164;4.472;2023-05-20T10:03:39;3.92;;;3.92;;
66669;SDS011;53568;52.164;4.472;2023-05-20T10:20:27;3.60;;;3.60;;
66669;SDS011;53568;52.164;4.472;2023-05-20T10:22:54;3.41;;;3.41;;
66669;SDS011;53568;52.164;4.472;2023-05-20T10:25:25;3.32;;;3.32;;
66669;SDS011;53568;52.164;4.472;2023-05-20T10:28:03;3.38;;;3.38;;
66669;SDS011;53568;52.164;4.472;2023-05-20T10:30:31;3.45;;;3.45;;
66669;SDS011;53568;52.164;4.472;2023-05-20T10:33:01;3.43;;;3.43;;
66669;SDS011;53568;52.164;4.472;2023-05-20T10:35:29;3.53;;;3.52;;
66669;SDS011;53568;52.164;4.472;2023-05-20T10:38:09;3.32;;;3.32;;
66669;SDS011;53568;52.164;4.472;2023-05-20T10:40:35;3.12;;;3.12;;
66669;SDS011;53568;52.164;4.472;2023-05-20T10:43:14;3.24;;;3.24;;
66669;SDS011;53568;52.164;4.472;2023-05-20T10:46:00;3.37;;;3.37;;
66669;SDS011;53568;52.164;4.472;2023-05-20T10:48:30;3.40;;;3.40;;
66669;SDS011;53568;52.164;4.472;2023-05-20T10:51:00;3.28;;;3.28;;
66669;SDS011;53568;52.164;4.472;2023-05-20T10:53:40;3.13;;;3.13;;
66669;SDS011;53568;52.164;4.472;2023-05-20T10:56:16;3.44;;;3.44;;
66669;SDS011;53568;52.164;4.472;2023-05-20T10:58:48;3.63;;;3.63;;
66669;SDS011;53568;52.164;4.472;2023-05-20T11:01:15;3.67;;;3.67;;
66669;SDS011;53568;52.164;4.472;2023-05-20T11:03:43;3.71;;;3.71;;
66669;SDS011;53568;52.164;4.472;2023-05-20T11:06:15;3.83;;;3.83;;
66669;SDS011;53568;52.164;4.472;2023-05-20T11:08:42;3.96;;;3.96;;
66669;SDS011;53568;52.164;4.472;2023-05-20T11:11:12;3.85;;;3.85;;
66669;SDS011;53568;52.164;4.472;2023-05-20T11:13:39;3.47;;;3.47;;
66669;SDS011;53568;52.164;4.472;2023-05-20T11:16:05;3.58;;;3.58;;
66669;SDS011;53568;52.164;4.472;2023-05-20T11:18:31;3.65;;;3.65;;
66669;SDS011;53568;52.164;4.472;2023-05-20T11:21:00;3.49;;;3.48;;
66669;SDS011;53568;52.164;4.472;2023-05-20T11:23:27;3.46;;;3.46;;
66669;SDS011;53568;52.164;4.472;2023-05-20T11:25:54;3.93;;;3.93;;
66669;SDS011;53568;52.164;4.472;2023-05-20T11:28:22;3.63;;;3.63;;
66669;SDS011;53568;52.164;4.472;2023-05-20T11:30:49;3.74;;;3.74;;
66669;SDS011;53568;52.164;4.472;2023-05-20T11:33:16;3.91;;;3.91;;
66669;SDS011;53568;52.164;4.472;2023-05-20T11:35:50;3.82;;;3.82;;
66669;SDS011;53568;52.164;4.472;2023-05-20T11:38:18;3.64;;;3.64;;
66669;SDS011;53568;52.164;4.472;2023-05-20T11:40:45;3.43;;;3.43;;
66669;SDS011;53568;52.164;4.472;2023-05-20T11:43:18;3.60;;;3.60;;
66669;SDS011;53568;52.164;4.472;2023-05-20T11:45:46;3.66;;;3.66;;
66669;SDS011;53568;52.164;4.472;2023-05-20T11:48:17;3.82;;;3.82;;
66669;SDS011;53568;52.164;4.472;2023-05-20T11:50:44;3.77;;;3.77;;
66669;SDS011;53568;52.164;4.472;2023-05-20T11:53:15;3.67;;;3.67;;
66669;SDS011;53568;52.164;4.472;2023-05-20T11:55:47;3.36;;;3.36;;
66669;SDS011;53568;52.164;4.472;2023-05-20T11:58:18;3.50;;;3.50;;
66669;SDS011;53568;52.164;4.472;2023-05-20T12:00:45;3.58;;;3.58;;
66669;SDS011;53568;52.164;4.472;2023-05-20T12:03:10;3.82;;;3.82;;
66669;SDS011;53568;52.164;4.472;2023-05-20T12:05:36;3.61;;;3.61;;
66669;SDS011;53568;52.164;4.472;2023-05-20T12:08:03;3.94;;;3.94;;
66669;SDS011;53568;52.164;4.472;2023-05-20T12:10:29;3.99;;;3.99;;
66669;SDS011;53568;52.164;4.472;2023-05-20T12:12:55;3.75;;;3.74;;
66669;SDS011;53568;52.164;4.472;2023-05-20T12:15:21;3.87;;;3.86;;
66669;SDS011;53568;52.164;4.472;2023-05-20T12:17:47;3.92;;;3.91;;
66669;SDS011;53568;52.164;4.472;2023-05-20T12:20:15;3.82;;;3.81;;
66669;SDS011;53568;52.164;4.472;2023-05-20T12:22:45;3.65;;;3.65;;
66669;SDS011;53568;52.164;4.472;2023-05-20T12:25:12;3.87;;;3.87;;
66669;SDS011;53568;52.164;4.472;2023-05-20T12:27:42;3.55;;;3.55;;
66669;SDS011;53568;52.164;4.472;2023-05-20T12:30:12;3.71;;;3.71;;
66669;SDS011;53568;52.164;4.472;2023-05-20T12:32:40;3.69;;;3.69;;
66669;SDS011;53568;52.164;4.472;2023-05-20T12:35:07;3.68;;;3.68;;
66669;SDS011;53568;52.164;4.472;2023-05-20T12:37:34;3.82;;;3.82;;
66669;SDS011;53568;52.164;4.472;2023-05-20T12:40:04;3.46;;;3.46;;
66669;SDS011;53568;52.164;4.472;2023-05-20T12:42:38;3.38;;;3.38;;
66669;SDS011;53568;52.164;4.472;2023-05-20T12:45:05;3.89;;;3.89;;
66669;SDS011;53568;52.164;4.472;2023-05-20T12:47:32;3.88;;;3.88;;
66669;SDS011;53568;52.164;4.472;2023-05-20T12:50:00;3.61;;;3.61;;
66669;SDS011;53568;52.164;4.472;2023-05-20T12:52:26;3.85;;;3.85;;
66669;SDS011;53568;52.164;4.472;2023-05-20T12:54:52;3.71;;;3.71;;
66669;SDS011;53568;52.164;4.472;2023-05-20T12:57:19;3.83;;;3.83;;
66669;SDS011;53568;52.164;4.472;2023-05-20T12:59:45;3.60;;;3.60;;
66669;SDS011;53568;52.164;4.472;2023-05-20T13:02:10;3.74;;;3.74;;
66669;SDS011;53568;52.164;4.472;2023-05-20T13:04:36;3.61;;;3.61;;
66669;SDS011;53568;52.164;4.472;2023-05-20T13:07:02;3.96;;;3.96;;
66669;SDS011;53568;52.164;4.472;2023-05-20T13:09:27;3.76;;;3.75;;
66669;SDS011;53568;52.164;4.472;2023-05-20T13:11:53;3.66;;;3.66;;
66669;SDS011;53568;52.164;4.472;2023-05-20T13:14:19;3.51;;;3.51;;
66669;SDS011;53568;52.164;4.472;2023-05-20T13:16:45;3.83;;;3.83;;
66669;SDS011;53568;52.164;4.472;2023-05-20T13:19:18;3.79;;;3.79;;
66669;SDS011;53568;52.164;4.472;2023-05-20T13:21:44;3.65;;;3.64;;
66669;SDS011;53568;52.164;4.472;2023-05-20T13:24:10;3.36;;;3.36;;
66669;SDS011;53568;52.164;4.472;2023-05-20T13:26:35;3.45;;;3.45;;
66669;SDS011;53568;52.164;4.472;2023-05-20T13:29:00;3.51;;;3.51;;
66669;SDS011;53568;52.164;4.472;2023-05-20T13:31:26;3.44;;;3.44;;
66669;SDS011;53568;52.164;4.472;2023-05-20T13:33:52;3.74;;;3.74;;
66669;SDS011;53568;52.164;4.472;2023-05-20T13:36:19;3.49;;;3.49;;
66669;SDS011;53568;52.164;4.472;2023-05-20T13:38:45;3.51;;;3.51;;
66669;SDS011;53568;52.164;4.472;2023-05-20T13:41:10;3.67;;;3.67;;
66669;SDS011;53568;52.164;4.472;2023-05-20T13:43:36;3.60;;;3.60;;
66669;SDS011;53568;52.164;4.472;2023-05-20T13:46:01;3.89;;;3.89;;
66669;SDS011;53568;52.164;4.472;2023-05-20T13:48:27;3.53;;;3.53;;
66669;SDS011;53568;52.164;4.472;2023-05-20T13:50:53;3.29;;;3.29;;
66669;SDS011;53568;52.164;4.472;2023-05-20T13:53:18;3.48;;;3.48;;
66669;SDS011;53568;52.164;4.472;2023-05-20T13:55:44;3.41;;;3.41;;
66669;SDS011;53568;52.164;4.472;2023-05-20T13:58:10;3.61;;;3.61;;
66669;SDS011;53568;52.164;4.472;2023-05-20T14:00:36;3.55;;;3.55;;
66669;SDS011;53568;52.164;4.472;2023-05-20T14:03:02;3.50;;;3.50;;
66669;SDS011;53568;52.164;4.472;2023-05-20T14:05:33;3.32;;;3.32;;
66669;SDS011;53568;52.164;4.472;2023-05-20T14:07:59;3.29;;;3.29;;
66669;SDS011;53568;52.164;4.472;2023-05-20T14:10:25;3.51;;;3.51;;
66669;SDS011;53568;52.164;4.472;2023-05-20T14:12:52;3.58;;;3.58;;
66669;SDS011;53568;52.164;4.472;2023-05-20T14:15:18;3.25;;;3.25;;
66669;SDS011;53568;52.164;4.472;2023-05-20T14:17:44;3.64;;;3.64;;
66669;SDS011;53568;52.164;4.472;2023-05-20T14:20:10;3.53;;;3.53;;
66669;SDS011;53568;52.164;4.472;2023-05-20T14:22:36;3.43;;;3.43;;
66669;SDS011;53568;52.164;4.472;2023-05-20T14:25:01;3.77;;;3.77;;
66669;SDS011;53568;52.164;4.472;2023-05-20T14:27:28;3.62;;;3.62;;
66669;SDS011;53568;52.164;4.472;2023-05-20T14:29:54;3.48;;;3.48;;
66669;SDS011;53568;52.164;4.472;2023-05-20T14:32:19;3.54;;;3.54;;
66669;SDS011;53568;52.164;4.472;2023-05-20T14:34:45;3.52;;;3.52;;
66669;SDS011;53568;52.164;4.472;2023-05-20T14:37:10;3.39;;;3.39;;
66669;SDS011;53568;52.164;4.472;2023-05-20T14:39:36;3.54;;;3.54;;
66669;SDS011;53568;52.164;4.472;2023-05-20T14:42:02;3.62;;;3.62;;
66669;SDS011;53568;52.164;4.472;2023-05-20T14:44:29;3.65;;;3.65;;
66669;SDS011;53568;52.164;4.472;2023-05-20T14:46:55;3.79;;;3.79;;
66669;SDS011;53568;52.164;4.472;2023-05-20T14:49:21;3.84;;;3.84;;